Time;durP1;ratioP1;P1;durP2;ratioP2;P2;SDS_P1;SDS_P2;PMS_P1;PMS_P2;Temp;Humidity;BMP_temperature;BMP_pressure;BME280_temperature;BME280_humidity;BME280_pressure;Samples;Min_cycle;Max_cycle;Signal;HPM_P1;HPM_P2
2023/09/28 03:32:31;;;;;;;4.30;3.40;;;13.10;99.90;;;;;;5197487;22;20504;-67
2023/09/28 03:34:56;;;;;;;3.80;3.07;;;13.10;99.90;;;;;;4996626;28;20473;-68
2023/09/28 03:37:23;;;;;;;4.90;3.17;;;13.10;99.90;;;;;;4996946;28;20486;-68
2023/09/28 03:39:50;;;;;;;3.17;2.87;;;13.10;99.90;;;;;;4999566;28;20237;-68
2023/09/28 03:42:17;;;;;;;5.07;3.30;;;13.10;99.90;;;;;;4986511;28;20487;-67
2023/09/28 03:44:44;;;;;;;4.40;2.60;;;13.10;99.90;;;;;;4981508;28;20463;-67
2023/09/28 03:47:11;;;;;;;3.00;2.70;;;13.10;99.90;;;;;;4976884;28;20506;-68
2023/09/28 03:49:39;;;;;;;3.50;3.00;;;13.10;99.90;;;;;;4977004;28;20466;-67
2023/09/28 03:52:06;;;;;;;3.63;2.87;;;13.10;99.90;;;;;;4976284;28;20514;-67
2023/09/28 03:54:32;;;;;;;3.50;2.87;;;13.10;99.90;;;;;;4977431;28;20466;-68
2023/09/28 03:56:59;;;;;;;3.73;3.13;;;13.20;99.90;;;;;;4976212;28;20487;-68
2023/09/28 03:59:26;;;;;;;4.70;3.20;;;13.20;99.90;;;;;;4978324;28;20473;-68
2023/09/28 04:01:53;;;;;;;3.17;2.87;;;13.20;99.90;;;;;;4976213;28;20487;-68
2023/09/28 04:04:20;;;;;;;4.10;2.90;;;13.20;99.90;;;;;;4977958;28;20470;-68
2023/09/28 04:06:49;;;;;;;4.07;2.93;;;13.20;99.90;;;;;;4990770;28;20549;-68
2023/09/28 04:09:16;;;;;;;3.70;2.50;;;13.30;99.90;;;;;;4983421;28;20971;-68
2023/09/28 04:11:43;;;;;;;3.57;2.60;;;13.20;99.90;;;;;;4980702;28;20493;-68
2023/09/28 04:14:11;;;;;;;2.83;2.50;;;13.20;99.90;;;;;;4981428;28;20558;-68
2023/09/28 04:16:39;;;;;;;3.57;3.10;;;13.20;99.90;;;;;;4981932;28;20947;-68
2023/09/28 04:19:06;;;;;;;4.33;3.50;;;13.20;99.90;;;;;;4980422;28;20470;-68
2023/09/28 04:21:33;;;;;;;4.03;3.00;;;13.20;99.90;;;;;;4982085;28;20982;-68
2023/09/28 04:24:02;;;;;;;3.73;2.60;;;13.20;99.90;;;;;;4979843;28;20471;-67
2023/09/28 04:26:28;;;;;;;5.63;2.80;;;13.20;99.90;;;;;;4982556;28;20897;-68
2023/09/28 04:28:55;;;;;;;3.90;3.10;;;13.20;99.90;;;;;;4980292;28;20455;-68
2023/09/28 04:31:22;;;;;;;5.97;3.37;;;13.10;99.90;;;;;;4982872;28;20490;-67
2023/09/28 04:33:49;;;;;;;3.20;2.70;;;13.10;99.90;;;;;;4990814;28;20473;-68
2023/09/28 04:36:16;;;;;;;3.17;2.70;;;13.10;99.90;;;;;;4988399;28;20574;-68
2023/09/28 04:38:43;;;;;;;3.37;3.07;;;13.10;99.90;;;;;;4986893;28;20462;-67
2023/09/28 04:41:12;;;;;;;4.33;3.30;;;13.20;99.90;;;;;;4987256;28;20492;-68
2023/09/28 04:43:39;;;;;;;3.30;3.00;;;13.10;99.90;;;;;;4988668;28;20504;-67
2023/09/28 04:46:06;;;;;;;3.50;3.00;;;13.10;99.90;;;;;;4985956;28;20215;-67
2023/09/28 04:48:32;;;;;;;3.10;2.90;;;13.20;99.90;;;;;;4990782;28;20481;-68
2023/09/28 04:50:59;;;;;;;5.47;3.07;;;13.20;99.90;;;;;;4985942;28;20493;-67
2023/09/28 04:53:27;;;;;;;3.27;2.73;;;13.10;99.90;;;;;;4991769;28;20470;-67
2023/09/28 04:55:54;;;;;;;4.03;2.70;;;13.10;99.90;;;;;;4984931;28;20470;-67
2023/09/28 04:58:22;;;;;;;4.10;2.93;;;13.10;99.90;;;;;;4982622;28;20483;-68
2023/09/28 05:00:48;;;;;;;3.33;3.03;;;13.10;99.90;;;;;;4980684;28;20499;-65
2023/09/28 05:03:15;;;;;;;4.47;3.40;;;13.10;99.90;;;;;;4981902;28;20470;-68
2023/09/28 05:05:42;;;;;;;3.43;2.90;;;13.10;99.90;;;;;;4981265;28;20466;-67
2023/09/28 05:08:10;;;;;;;5.27;3.00;;;13.10;99.90;;;;;;4981138;28;20463;-68
2023/09/28 05:10:36;;;;;;;3.07;2.73;;;13.10;99.90;;;;;;4982536;28;20513;-68
2023/09/28 05:13:03;;;;;;;5.10;4.10;;;13.10;99.90;;;;;;4980388;28;20459;-68
2023/09/28 05:15:31;;;;;;;3.30;3.00;;;13.10;99.90;;;;;;4980135;28;20477;-68
2023/09/28 05:17:58;;;;;;;3.83;3.53;;;13.10;99.90;;;;;;4980151;28;20487;-68
2023/09/28 05:20:25;;;;;;;4.47;3.17;;;13.10;99.90;;;;;;4983244;28;20476;-68
2023/09/28 05:22:51;;;;;;;5.43;3.30;;;13.10;99.90;;;;;;4980592;28;20468;-68
2023/09/28 05:25:18;;;;;;;5.30;3.37;;;13.10;99.90;;;;;;4982294;28;20487;-69
2023/09/28 05:27:45;;;;;;;3.50;3.20;;;13.10;99.90;;;;;;4981598;28;20458;-70
2023/09/28 05:30:13;;;;;;;4.17;3.30;;;13.10;99.90;;;;;;4981937;28;20467;-69
2023/09/28 05:32:41;;;;;;;5.70;3.80;;;13.20;99.90;;;;;;4982428;28;20465;-70
2023/09/28 05:35:08;;;;;;;4.70;3.23;;;13.20;99.90;;;;;;4980735;28;20474;-70
2023/09/28 05:37:35;;;;;;;6.83;3.37;;;13.20;99.90;;;;;;4983317;28;20569;-69
2023/09/28 05:40:03;;;;;;;4.27;3.20;;;13.20;99.90;;;;;;4980900;28;20491;-70
2023/09/28 05:42:30;;;;;;;6.53;3.20;;;13.20;99.90;;;;;;4980813;28;20536;-69
2023/09/28 05:44:57;;;;;;;7.47;3.00;;;13.20;99.90;;;;;;4995729;28;20462;-69
2023/09/28 05:47:24;;;;;;;3.20;2.90;;;13.20;99.90;;;;;;4984319;28;20486;-69
2023/09/28 05:49:52;;;;;;;4.53;3.03;;;13.20;99.90;;;;;;4981240;28;20461;-69
2023/09/28 05:52:20;;;;;;;4.27;3.17;;;13.20;99.90;;;;;;4985605;28;20478;-69
2023/09/28 05:54:47;;;;;;;4.60;3.53;;;13.20;99.90;;;;;;4986908;28;20463;-69
2023/09/28 05:57:14;;;;;;;4.60;3.40;;;13.20;99.90;;;;;;4987977;28;20491;-69
2023/09/28 05:59:41;;;;;;;3.73;3.00;;;13.20;99.90;;;;;;4991672;28;20553;-69
2023/09/28 06:02:08;;;;;;;2.97;2.67;;;13.20;99.90;;;;;;4992899;28;20994;-69
2023/09/28 06:04:35;;;;;;;4.77;3.40;;;13.20;99.90;;;;;;4983287;28;20494;-69
2023/09/28 06:07:03;;;;;;;3.73;3.30;;;13.30;99.90;;;;;;4979735;28;20471;-69
2023/09/28 06:09:29;;;;;;;4.17;3.00;;;13.30;99.90;;;;;;4984339;28;20465;-69
2023/09/28 06:11:57;;;;;;;3.97;3.50;;;13.30;99.90;;;;;;4980832;28;20971;-69
2023/09/28 06:14:24;;;;;;;3.33;3.03;;;13.30;99.90;;;;;;4982875;28;20467;-69
2023/09/28 06:16:50;;;;;;;4.03;3.00;;;13.40;99.90;;;;;;4981531;28;20489;-69
2023/09/28 06:19:17;;;;;;;3.60;2.83;;;13.40;99.90;;;;;;4982592;28;20459;-69
2023/09/28 06:21:44;;;;;;;3.50;2.87;;;13.40;99.90;;;;;;4986621;28;20493;-69
2023/09/28 06:24:12;;;;;;;4.77;3.43;;;13.50;99.90;;;;;;4995798;28;20469;-69
2023/09/28 06:26:38;;;;;;;3.37;2.90;;;13.50;99.90;;;;;;4983799;28;20458;-69
2023/09/28 06:29:05;;;;;;;6.53;3.57;;;13.50;99.90;;;;;;4980737;28;20486;-69
2023/09/28 06:31:32;;;;;;;4.80;3.90;;;13.60;99.90;;;;;;4984140;28;20490;-69
2023/09/28 06:33:59;;;;;;;9.60;3.40;;;13.60;99.90;;;;;;4980550;28;20518;-69
2023/09/28 06:36:26;;;;;;;4.03;3.40;;;13.70;99.90;;;;;;4984057;28;20462;-68
2023/09/28 06:38:54;;;;;;;6.00;3.90;;;13.80;99.90;;;;;;4989367;28;20489;-68
2023/09/28 06:41:23;;;;;;;3.73;2.97;;;13.90;99.90;;;;;;5001921;28;20490;-68
2023/09/28 06:43:49;;;;;;;3.70;3.33;;;14.00;99.90;;;;;;4990699;28;20467;-68
2023/09/28 06:46:17;;;;;;;3.83;3.13;;;14.20;99.90;;;;;;4982107;28;20944;-69
2023/09/28 06:48:45;;;;;;;4.83;3.07;;;14.30;99.90;;;;;;4982706;28;20459;-69
2023/09/28 06:51:11;;;;;;;3.50;3.20;;;14.50;99.90;;;;;;4981614;28;20494;-68
2023/09/28 06:53:38;;;;;;;3.60;3.00;;;14.60;99.90;;;;;;4983637;28;20463;-68
2023/09/28 06:56:05;;;;;;;3.57;3.03;;;14.80;99.90;;;;;;4980668;28;20495;-68
2023/09/28 06:58:34;;;;;;;3.50;2.80;;;15.00;99.90;;;;;;4984250;28;20486;-68
2023/09/28 07:01:00;;;;;;;4.23;3.30;;;15.20;99.90;;;;;;4980455;28;20839;-68
2023/09/28 07:03:27;;;;;;;5.43;3.50;;;15.40;99.90;;;;;;4983153;28;20463;-69
2023/09/28 07:05:54;;;;;;;3.90;2.90;;;15.60;99.90;;;;;;4981147;28;20472;-68
2023/09/28 07:08:20;;;;;;;3.50;2.97;;;15.80;99.90;;;;;;4982963;28;20477;-68
2023/09/28 07:10:47;;;;;;;3.60;3.13;;;16.00;99.90;;;;;;4982506;28;20480;-68
2023/09/28 07:13:14;;;;;;;5.80;4.13;;;16.10;99.90;;;;;;4980792;28;20472;-68
2023/09/28 07:15:42;;;;;;;4.03;3.27;;;16.30;99.90;;;;;;4983690;28;20484;-69
2023/09/28 07:18:09;;;;;;;4.37;3.97;;;16.50;99.90;;;;;;4981485;28;20488;-68
2023/09/28 07:20:37;;;;;;;5.03;3.90;;;16.60;99.90;;;;;;4996878;28;20484;-69
2023/09/28 07:23:04;;;;;;;4.67;3.73;;;16.70;99.90;;;;;;4990332;28;20482;-69
2023/09/28 07:25:31;;;;;;;6.00;3.40;;;16.90;99.90;;;;;;4987572;28;20461;-68
2023/09/28 07:27:57;;;;;;;4.13;3.73;;;17.00;99.90;;;;;;4981699;28;20466;-69
2023/09/28 07:30:25;;;;;;;4.13;3.60;;;17.10;99.90;;;;;;4979495;28;20549;-68
2023/09/28 07:32:53;;;;;;;5.20;4.00;;;17.20;99.90;;;;;;4980486;28;20475;-68
2023/09/28 07:35:20;;;;;;;5.47;4.00;;;17.30;99.90;;;;;;4981881;28;20469;-69
2023/09/28 07:37:47;;;;;;;4.90;3.47;;;17.40;99.90;;;;;;4983374;28;20486;-68
2023/09/28 07:40:17;;;;;;;4.70;3.37;;;17.40;99.90;;;;;;4978211;28;20471;-69
2023/09/28 07:42:45;;;;;;;5.30;3.50;;;17.40;99.90;;;;;;4990480;28;20469;-68
2023/09/28 07:45:13;;;;;;;6.40;3.50;;;17.30;99.90;;;;;;4998454;28;20484;-68
2023/09/28 07:47:40;;;;;;;3.37;3.07;;;17.30;99.90;;;;;;5005940;28;20474;-68
2023/09/28 07:50:10;;;;;;;3.80;3.40;;;17.40;99.90;;;;;;4994813;28;20481;-68
2023/09/28 07:52:37;;;;;;;3.70;2.77;;;17.30;99.90;;;;;;4999359;28;20492;-68
2023/09/28 07:55:05;;;;;;;3.10;2.80;;;17.30;99.90;;;;;;4988411;28;21022;-68
2023/09/28 07:57:32;;;;;;;3.50;3.20;;;17.40;99.90;;;;;;5002660;28;20488;-68
2023/09/28 07:59:59;;;;;;;3.33;2.90;;;17.40;99.90;;;;;;4991350;28;20466;-68
2023/09/28 08:02:27;;;;;;;2.87;2.57;;;17.60;99.90;;;;;;5001641;28;20904;-68
2023/09/28 08:04:54;;;;;;;3.10;2.80;;;17.70;99.90;;;;;;4992790;28;21032;-68
2023/09/28 08:07:24;;;;;;;4.73;3.10;;;17.90;99.90;;;;;;4997842;28;20962;-68
2023/09/28 08:09:51;;;;;;;4.03;2.80;;;18.00;99.90;;;;;;4994878;28;20523;-68
2023/09/28 08:12:19;;;;;;;3.53;2.80;;;18.20;99.90;;;;;;4999696;28;20574;-68
2023/09/28 08:14:47;;;;;;;3.23;2.77;;;18.60;99.90;;;;;;5001479;28;20461;-68
2023/09/28 08:17:14;;;;;;;4.23;3.50;;;19.00;99.90;;;;;;4998162;28;20998;-69
2023/09/28 08:19:41;;;;;;;3.67;3.10;;;19.30;99.90;;;;;;4998199;28;20542;-68
2023/09/28 08:22:08;;;;;;;4.73;2.80;;;19.40;99.90;;;;;;4997509;28;20490;-68
2023/09/28 08:24:36;;;;;;;3.57;2.80;;;19.40;99.90;;;;;;4998233;28;20473;-68
2023/09/28 08:27:04;;;;;;;3.47;2.70;;;19.30;99.90;;;;;;4998524;28;20474;-68
2023/09/28 08:29:31;;;;;;;3.40;2.87;;;19.20;99.90;;;;;;4981708;28;20466;-68
2023/09/28 08:31:58;;;;;;;3.20;2.90;;;19.10;99.90;;;;;;4986779;28;20861;-68
2023/09/28 08:34:24;;;;;;;3.43;2.80;;;19.00;99.90;;;;;;4994669;28;20848;-69
2023/09/28 08:36:51;;;;;;;3.47;3.17;;;18.90;99.90;;;;;;5002129;28;20524;-68
2023/09/28 08:39:18;;;;;;;3.80;2.60;;;18.80;99.90;;;;;;4993644;28;20479;-68
2023/09/28 08:41:53;;;;;;;3.93;3.00;;;18.70;99.90;;;;;;4988505;28;20545;-68
2023/09/28 08:44:26;;;;;;;5.17;3.20;;;18.80;99.90;;;;;;4985658;28;20466;-68
2023/09/28 08:46:58;;;;;;;3.50;2.97;;;19.00;99.90;;;;;;4987775;28;20468;-68
2023/09/28 08:49:29;;;;;;;3.83;3.20;;;19.40;99.90;;;;;;4987216;28;20463;-68
2023/09/28 08:51:56;;;;;;;3.70;2.63;;;19.70;99.90;;;;;;4987512;28;20482;-68
2023/09/28 08:54:25;;;;;;;3.23;2.93;;;20.00;99.90;;;;;;4985810;28;20468;-69
2023/09/28 08:56:57;;;;;;;3.97;3.10;;;20.20;99.90;;;;;;4988290;28;20463;-69
2023/09/28 08:59:28;;;;;;;3.87;3.27;;;20.40;99.90;;;;;;4987458;28;20519;-68
2023/09/28 09:01:57;;;;;;;3.00;2.70;;;20.80;99.90;;;;;;4987449;28;20559;-69
2023/09/28 09:04:24;;;;;;;3.50;2.80;;;21.00;99.90;;;;;;4987440;28;20732;-69
2023/09/28 09:06:52;;;;;;;3.50;2.83;;;21.30;99.90;;;;;;4988865;28;20480;-68
2023/09/28 09:09:20;;;;;;;4.23;2.77;;;21.40;99.90;;;;;;4987166;28;21315;-69
2023/09/28 09:11:50;;;;;;;3.73;2.87;;;21.50;99.90;;;;;;4989243;28;20489;-68
2023/09/28 09:14:19;;;;;;;2.70;2.30;;;21.60;99.90;;;;;;5002043;28;20479;-69
2023/09/28 09:16:46;;;;;;;3.37;3.03;;;21.80;99.90;;;;;;5004566;28;20948;-69
2023/09/28 09:19:14;;;;;;;4.27;3.43;;;22.10;99.90;;;;;;4988891;28;20500;-69
2023/09/28 09:21:44;;;;;;;3.73;3.00;;;22.40;99.90;;;;;;4988999;28;20544;-68
2023/09/28 09:24:13;;;;;;;3.20;2.90;;;22.50;99.90;;;;;;4985257;28;21032;-69
2023/09/28 09:26:42;;;;;;;3.30;2.90;;;22.70;99.90;;;;;;4984759;28;20491;-69
2023/09/28 09:29:09;;;;;;;3.37;2.70;;;22.90;99.90;;;;;;4986720;28;20467;-69
2023/09/28 09:31:39;;;;;;;4.17;2.63;;;23.10;99.90;;;;;;4983517;28;20486;-68
2023/09/28 09:34:06;;;;;;;3.00;2.63;;;23.20;99.90;;;;;;4986504;28;20470;-69
2023/09/28 09:36:33;;;;;;;3.20;2.57;;;23.30;99.90;;;;;;4983766;28;20475;-69
2023/09/28 09:39:00;;;;;;;3.40;2.43;;;23.40;99.90;;;;;;4988049;28;20497;-68
2023/09/28 09:41:28;;;;;;;4.57;3.33;;;23.50;99.90;;;;;;4983909;28;20489;-68
2023/09/28 09:43:54;;;;;;;2.87;2.60;;;23.70;99.90;;;;;;4988373;28;20474;-69
2023/09/28 09:46:21;;;;;;;3.40;3.10;;;23.90;99.90;;;;;;4982586;28;20526;-69
2023/09/28 09:48:51;;;;;;;2.60;2.40;;;24.00;99.90;;;;;;4989408;28;20465;-66
2023/09/28 09:51:18;;;;;;;2.60;2.40;;;24.20;99.90;;;;;;4988769;28;20483;-67
2023/09/28 09:53:46;;;;;;;3.13;2.83;;;24.30;99.90;;;;;;4988755;28;20466;-66
2023/09/28 09:56:15;;;;;;;3.40;2.77;;;24.50;99.90;;;;;;4981289;28;20994;-69
2023/09/28 09:58:47;;;;;;;3.83;2.70;;;24.60;99.90;;;;;;4989605;28;20489;-69
2023/09/28 10:01:15;;;;;;;3.57;2.80;;;24.80;99.90;;;;;;4981125;28;20486;-69
2023/09/28 10:03:45;;;;;;;3.50;3.13;;;24.90;99.90;;;;;;4989159;28;20875;-68
2023/09/28 10:06:16;;;;;;;3.30;3.00;;;25.00;99.90;;;;;;4976554;28;20478;-68
2023/09/28 10:08:46;;;;;;;2.40;2.17;;;25.10;99.90;;;;;;4992144;28;20461;-68
2023/09/28 10:11:14;;;;;;;2.57;2.37;;;25.20;99.90;;;;;;4984393;28;20856;-68
2023/09/28 10:13:41;;;;;;;3.20;2.73;;;25.40;99.90;;;;;;4989375;28;20471;-67
2023/09/28 10:16:12;;;;;;;2.80;2.50;;;25.50;99.90;;;;;;4981655;28;20480;-68
2023/09/28 10:18:43;;;;;;;3.90;3.17;;;25.60;99.90;;;;;;4989500;28;21033;-67
2023/09/28 10:21:11;;;;;;;3.20;2.90;;;25.80;99.90;;;;;;4986815;28;20486;-68
2023/09/28 10:23:42;;;;;;;2.90;2.60;;;25.90;99.90;;;;;;4990122;28;20963;-68
2023/09/28 10:26:13;;;;;;;3.40;2.97;;;25.90;99.90;;;;;;4984258;28;20466;-68
2023/09/28 10:29:03;;;;;;;3.00;2.53;;;26.10;99.90;;;;;;4989225;28;20502;-68
2023/09/28 10:31:30;;;;;;;2.83;2.53;;;26.20;99.90;;;;;;4995076;28;20496;-68
2023/09/28 10:33:58;;;;;;;4.07;2.70;;;26.30;99.90;;;;;;5008297;28;20465;-68
2023/09/28 10:36:27;;;;;;;2.40;2.10;;;26.30;99.90;;;;;;4986444;28;20463;-68
2023/09/28 10:39:13;;;;;;;3.83;2.30;;;26.50;99.90;;;;;;4990315;28;20889;-68
2023/09/28 10:41:45;;;;;;;3.60;2.93;;;26.50;99.90;;;;;;4984577;28;20486;-68
2023/09/28 10:44:13;;;;;;;2.77;2.50;;;26.50;99.90;;;;;;4988501;28;20494;-68
2023/09/28 10:46:40;;;;;;;6.60;3.07;;;26.50;99.90;;;;;;4990191;28;20513;-68
2023/09/28 10:49:07;;;;;;;2.50;2.17;;;26.50;99.90;;;;;;4988902;28;20851;-68
2023/09/28 10:51:34;;;;;;;3.30;2.63;;;26.60;99.90;;;;;;4983954;28;20861;-66
2023/09/28 10:54:04;;;;;;;2.20;2.00;;;26.60;99.90;;;;;;4989145;28;20557;-66
2023/09/28 10:56:33;;;;;;;2.47;2.27;;;26.60;99.90;;;;;;4983114;28;20459;-67
2023/09/28 10:59:02;;;;;;;2.43;2.23;;;26.70;99.90;;;;;;4990210;28;20560;-68
2023/09/28 11:01:29;;;;;;;2.63;2.43;;;26.70;99.90;;;;;;4994597;28;20585;-68
2023/09/28 11:03:56;;;;;;;2.70;2.50;;;26.70;99.90;;;;;;5002352;28;20462;-68
2023/09/28 11:06:22;;;;;;;2.60;2.40;;;26.80;99.90;;;;;;4983097;28;20571;-68
2023/09/28 11:08:50;;;;;;;2.83;2.30;;;26.80;99.90;;;;;;4990265;28;20494;-68
2023/09/28 11:11:21;;;;;;;2.07;1.97;;;26.90;99.90;;;;;;4983185;28;20908;-68
2023/09/28 11:13:49;;;;;;;2.33;2.13;;;27.00;99.90;;;;;;4990540;28;20549;-68
2023/09/28 11:16:18;;;;;;;2.13;1.60;;;27.10;99.90;;;;;;4982750;28;20521;-68
2023/09/28 11:18:45;;;;;;;2.20;2.00;;;27.10;99.90;;;;;;4990800;28;20458;-68
2023/09/28 11:21:12;;;;;;;3.13;2.50;;;27.20;99.90;;;;;;4983731;28;20545;-68
2023/09/28 11:23:40;;;;;;;2.00;1.83;;;27.10;99.90;;;;;;4990389;28;20466;-66
2023/09/28 11:26:07;;;;;;;2.77;2.23;;;27.10;99.90;;;;;;4984075;28;20466;-66
2023/09/28 11:28:34;;;;;;;1.90;1.70;;;27.10;99.90;;;;;;4990720;28;20482;-66
2023/09/28 11:31:07;;;;;;;3.50;2.57;;;27.20;99.90;;;;;;4984489;28;20509;-66
2023/09/28 11:33:35;;;;;;;3.00;1.80;;;27.20;99.90;;;;;;5002975;28;20466;-66
2023/09/28 11:36:02;;;;;;;3.33;2.80;;;27.30;99.90;;;;;;4991617;28;21021;-66
2023/09/28 11:38:29;;;;;;;2.90;2.40;;;27.50;99.90;;;;;;4990463;28;20462;-66
2023/09/28 11:40:56;;;;;;;2.93;2.20;;;27.50;99.90;;;;;;4985039;28;20482;-66
2023/09/28 11:43:23;;;;;;;2.37;2.17;;;27.50;99.90;;;;;;4998731;28;20953;-65
2023/09/28 11:45:50;;;;;;;2.17;1.97;;;27.60;99.90;;;;;;4994777;28;20465;-66
2023/09/28 11:48:20;;;;;;;2.60;2.27;;;27.70;99.90;;;;;;4992649;28;20841;-66
2023/09/28 11:50:48;;;;;;;2.40;2.20;;;27.80;99.90;;;;;;4987058;28;20478;-66
2023/09/28 11:53:15;;;;;;;3.40;2.67;;;27.90;99.90;;;;;;4973416;28;20497;-68
2023/09/28 11:55:45;;;;;;;2.57;2.10;;;28.00;99.90;;;;;;4971797;28;20470;-68
2023/09/28 11:58:12;;;;;;;2.50;2.00;;;28.20;99.90;;;;;;4971778;28;20466;-68
2023/09/28 12:00:39;;;;;;;2.90;2.13;;;28.20;99.90;;;;;;4972001;28;20913;-68
2023/09/28 12:03:06;;;;;;;2.80;2.00;;;28.30;99.90;;;;;;4971544;28;20827;-69
2023/09/28 12:05:35;;;;;;;2.10;1.90;;;28.40;99.90;;;;;;4977797;28;20219;-68
2023/09/28 12:08:01;;;;;;;2.17;1.87;;;28.40;99.30;;;;;;4972243;28;20541;-68
2023/09/28 12:10:28;;;;;;;1.40;1.30;;;28.50;99.90;;;;;;4971892;28;21196;-68
2023/09/28 12:12:57;;;;;;;2.13;1.83;;;28.60;99.90;;;;;;4972145;28;20471;-68
2023/09/28 12:15:24;;;;;;;1.90;1.80;;;28.70;99.90;;;;;;4979793;28;20469;-68
2023/09/28 12:17:50;;;;;;;1.67;1.37;;;28.70;99.90;;;;;;4976922;28;20486;-68
2023/09/28 12:20:17;;;;;;;2.30;1.80;;;28.80;99.90;;;;;;4971427;28;20468;-69
2023/09/28 12:22:47;;;;;;;1.50;1.40;;;28.80;96.10;;;;;;4985445;28;20846;-67
2023/09/28 12:25:13;;;;;;;1.67;1.53;;;28.80;98.20;;;;;;4971288;28;20471;-67
2023/09/28 12:27:44;;;;;;;2.70;1.97;;;28.60;93.70;;;;;;4972481;28;20475;-67
2023/09/28 12:30:12;;;;;;;2.13;1.93;;;28.40;94.60;;;;;;4981955;28;20478;-66
2023/09/28 12:32:39;;;;;;;2.03;1.83;;;28.40;95.30;;;;;;4975473;28;20979;-66
2023/09/28 12:35:07;;;;;;;2.00;1.60;;;28.40;97.30;;;;;;4974455;28;20469;-67
2023/09/28 12:37:36;;;;;;;4.53;1.93;;;28.50;97.50;;;;;;4975015;28;20498;-66
2023/09/28 12:40:11;;;;;;;1.93;1.70;;;28.60;98.40;;;;;;4975732;28;20553;-66
2023/09/28 12:42:38;;;;;;;1.63;1.53;;;28.80;99.90;;;;;;4991987;28;20481;-66
2023/09/28 12:45:06;;;;;;;2.00;1.60;;;28.80;99.90;;;;;;4985624;28;20851;-66
2023/09/28 12:47:33;;;;;;;2.07;1.70;;;28.80;99.80;;;;;;4975282;28;20534;-66
2023/09/28 12:50:02;;;;;;;1.93;1.70;;;28.90;99.20;;;;;;4975813;28;20563;-66
2023/09/28 12:52:29;;;;;;;2.13;1.83;;;28.90;98.30;;;;;;4975914;28;20481;-68
2023/09/28 12:54:56;;;;;;;1.70;1.60;;;28.90;98.80;;;;;;4980871;28;20530;-68
2023/09/28 12:57:24;;;;;;;1.57;1.40;;;29.00;99.50;;;;;;4991938;28;20466;-68
2023/09/28 12:59:51;;;;;;;1.70;1.33;;;29.00;99.70;;;;;;4988543;28;20471;-69
2023/09/28 13:02:19;;;;;;;1.40;1.30;;;29.00;99.30;;;;;;4985414;28;20501;-68
2023/09/28 13:04:45;;;;;;;2.50;1.33;;;29.00;99.20;;;;;;4975617;28;20995;-65
2023/09/28 13:07:12;;;;;;;3.23;1.80;;;29.00;97.90;;;;;;4976437;28;20493;-68
2023/09/28 13:09:39;;;;;;;1.50;1.40;;;28.80;96.90;;;;;;4976257;28;20484;-68
2023/09/28 13:12:08;;;;;;;1.73;1.53;;;28.70;94.50;;;;;;4976399;28;20490;-68
2023/09/28 13:14:36;;;;;;;1.73;1.60;;;28.70;97.40;;;;;;4975619;28;20470;-68
2023/09/28 13:17:03;;;;;;;1.90;1.20;;;28.70;99.60;;;;;;4982779;28;20999;-68
2023/09/28 13:19:30;;;;;;;1.80;1.53;;;28.70;99.40;;;;;;4976920;28;20466;-68
2023/09/28 13:21:57;;;;;;;1.90;1.47;;;28.60;95.40;;;;;;4979454;28;20499;-67
2023/09/28 13:24:25;;;;;;;2.10;1.90;;;28.70;94.00;;;;;;4976175;28;20467;-67
2023/09/28 13:26:52;;;;;;;2.33;1.70;;;28.60;96.40;;;;;;4975668;28;20478;-68
2023/09/28 13:29:20;;;;;;;1.63;1.30;;;28.50;94.90;;;;;;4976606;28;20872;-68
2023/09/28 13:31:50;;;;;;;1.53;1.43;;;28.60;96.10;;;;;;4975554;28;20573;-68
2023/09/28 13:34:17;;;;;;;1.53;1.30;;;28.50;94.50;;;;;;4976593;28;20475;-68
2023/09/28 13:36:44;;;;;;;1.50;1.27;;;28.40;96.60;;;;;;4975729;28;20474;-68
2023/09/28 13:39:26;;;;;;;1.30;1.20;;;28.50;97.00;;;;;;4976171;28;20491;-68
2023/09/28 13:41:54;;;;;;;1.30;1.13;;;28.50;97.30;;;;;;4989166;28;20486;-68
2023/09/28 13:44:20;;;;;;;1.50;1.37;;;28.50;97.80;;;;;;4976470;28;20463;-68
2023/09/28 13:46:49;;;;;;;1.57;1.40;;;28.50;97.00;;;;;;4976371;28;20467;-68
2023/09/28 13:49:16;;;;;;;2.20;1.63;;;28.50;98.10;;;;;;4977311;28;20490;-68
2023/09/28 13:51:43;;;;;;;1.53;1.40;;;28.50;99.90;;;;;;4976399;28;20570;-69
2023/09/28 13:54:10;;;;;;;1.43;1.30;;;28.50;99.90;;;;;;4976332;28;20542;-69
2023/09/28 13:56:37;;;;;;;2.20;1.50;;;28.40;98.70;;;;;;4977098;28;20482;-68
2023/09/28 13:59:09;;;;;;;1.70;1.10;;;28.30;98.10;;;;;;4976091;28;20468;-68
2023/09/28 14:01:36;;;;;;;1.57;1.43;;;28.30;99.00;;;;;;4976353;28;20478;-68
2023/09/28 14:04:05;;;;;;;1.27;1.17;;;28.20;96.00;;;;;;4976073;28;20463;-68
2023/09/28 14:06:33;;;;;;;1.60;1.30;;;28.20;96.20;;;;;;4982324;28;20469;-68
2023/09/28 14:09:01;;;;;;;1.30;1.20;;;28.20;94.10;;;;;;4976525;28;20484;-68
2023/09/28 14:11:29;;;;;;;1.37;1.27;;;28.20;96.50;;;;;;4977658;28;20481;-68
2023/09/28 14:13:56;;;;;;;1.63;1.53;;;28.30;95.50;;;;;;4976370;28;20469;-68
2023/09/28 14:16:23;;;;;;;1.70;1.57;;;28.30;97.00;;;;;;4978303;28;20980;-68
2023/09/28 14:18:51;;;;;;;1.50;1.20;;;28.40;98.00;;;;;;4976759;28;20460;-68
2023/09/28 14:21:20;;;;;;;1.63;1.33;;;28.40;98.30;;;;;;4977851;28;21000;-68
2023/09/28 14:23:48;;;;;;;1.70;1.50;;;28.50;93.90;;;;;;4976421;28;20495;-68
2023/09/28 14:26:18;;;;;;;1.27;1.10;;;28.50;92.60;;;;;;4977587;28;20514;-68
2023/09/28 14:28:45;;;;;;;1.50;1.30;;;28.40;93.10;;;;;;4976132;28;20964;-68
2023/09/28 14:31:12;;;;;;;1.40;1.30;;;28.50;97.00;;;;;;4976975;28;20502;-68
2023/09/28 14:33:39;;;;;;;1.20;1.10;;;28.40;92.90;;;;;;4977391;28;21059;-68
2023/09/28 14:36:06;;;;;;;1.50;1.30;;;28.30;94.10;;;;;;4976039;28;21030;-68
2023/09/28 14:38:34;;;;;;;1.57;1.40;;;28.10;96.90;;;;;;4978395;28;20458;-68
2023/09/28 14:41:01;;;;;;;1.20;1.10;;;28.10;99.90;;;;;;4976754;28;21025;-68
2023/09/28 14:43:27;;;;;;;1.70;1.40;;;27.90;95.70;;;;;;4985393;28;20482;-68
2023/09/28 14:45:56;;;;;;;1.73;1.10;;;27.70;98.60;;;;;;4979774;28;20982;-68
2023/09/28 14:48:22;;;;;;;1.40;1.30;;;27.60;96.40;;;;;;4977490;28;21595;-68
2023/09/28 14:50:49;;;;;;;1.37;1.27;;;27.50;94.30;;;;;;4973921;28;20832;-68
2023/09/28 14:53:19;;;;;;;1.37;1.27;;;27.50;97.30;;;;;;4977869;28;21038;-68
2023/09/28 14:55:49;;;;;;;1.40;1.30;;;27.40;97.50;;;;;;4974905;28;20475;-68
2023/09/28 14:58:15;;;;;;;2.03;1.27;;;27.50;99.50;;;;;;4977857;28;20986;-68
2023/09/28 15:00:43;;;;;;;1.43;1.30;;;27.50;97.30;;;;;;4975862;28;20482;-68
2023/09/28 15:03:10;;;;;;;1.60;1.30;;;27.60;96.50;;;;;;4977359;28;20479;-68
2023/09/28 15:05:37;;;;;;;1.33;1.20;;;27.80;97.70;;;;;;4976286;28;20471;-68
2023/09/28 15:08:05;;;;;;;1.80;1.47;;;27.80;99.90;;;;;;4976959;28;20470;-68
2023/09/28 15:10:31;;;;;;;1.33;1.00;;;27.80;99.90;;;;;;4975301;28;20481;-69
2023/09/28 15:12:59;;;;;;;1.10;1.00;;;27.70;97.80;;;;;;4977053;28;20845;-68
2023/09/28 15:15:27;;;;;;;1.60;1.30;;;27.70;97.80;;;;;;4977576;28;20478;-68
2023/09/28 15:17:53;;;;;;;1.80;1.30;;;27.70;97.60;;;;;;4977074;28;20476;-68
2023/09/28 15:20:20;;;;;;;1.60;1.20;;;27.70;95.10;;;;;;4978832;28;20463;-68
2023/09/28 15:22:48;;;;;;;1.83;1.37;;;27.70;96.20;;;;;;4976621;28;20479;-68
2023/09/28 15:25:15;;;;;;;1.57;1.20;;;27.70;97.90;;;;;;4977834;28;20502;-68
2023/09/28 15:27:42;;;;;;;1.30;1.20;;;27.60;97.30;;;;;;4977495;28;20482;-68
2023/09/28 15:30:11;;;;;;;3.53;1.60;;;27.50;99.20;;;;;;4977021;28;20479;-69
2023/09/28 15:32:38;;;;;;;2.60;1.37;;;27.40;99.90;;;;;;4978483;28;20482;-69
2023/09/28 15:35:09;;;;;;;1.50;1.40;;;27.20;99.90;;;;;;4979484;28;20470;-69
2023/09/28 15:37:35;;;;;;;1.80;1.57;;;27.00;99.90;;;;;;4977035;28;20462;-68
2023/09/28 15:40:03;;;;;;;1.53;1.40;;;26.80;99.90;;;;;;4977507;28;20982;-68
2023/09/28 15:42:30;;;;;;;1.73;1.50;;;26.50;99.90;;;;;;4987009;28;20527;-69
2023/09/28 15:44:57;;;;;;;1.70;1.60;;;26.30;99.90;;;;;;4987219;28;20469;-68
2023/09/28 15:47:25;;;;;;;1.73;1.43;;;26.10;99.90;;;;;;4981121;28;20927;-68
2023/09/28 15:49:52;;;;;;;2.10;1.40;;;25.90;99.90;;;;;;4977460;28;20502;-68
2023/09/28 15:52:19;;;;;;;1.40;1.27;;;25.80;99.90;;;;;;4979550;28;20487;-68
2023/09/28 15:54:46;;;;;;;2.03;1.20;;;25.60;99.90;;;;;;4977952;28;20470;-68
2023/09/28 15:57:13;;;;;;;2.30;1.43;;;25.40;99.90;;;;;;4990114;28;20852;-68
2023/09/28 15:59:39;;;;;;;1.20;1.10;;;25.20;99.90;;;;;;4989464;28;20476;-69
2023/09/28 16:02:07;;;;;;;1.63;1.30;;;25.00;99.90;;;;;;4984530;28;20490;-69
2023/09/28 16:04:36;;;;;;;1.73;1.47;;;24.80;99.90;;;;;;4992620;28;20989;-68
2023/09/28 16:07:03;;;;;;;1.70;1.53;;;24.50;99.90;;;;;;4988641;28;20994;-69
2023/09/28 16:09:30;;;;;;;1.60;1.50;;;24.30;99.90;;;;;;4992956;28;21115;-68
2023/09/28 16:11:58;;;;;;;1.40;1.30;;;24.00;99.90;;;;;;4996442;28;20555;-68
2023/09/28 16:14:25;;;;;;;1.70;1.33;;;23.80;99.90;;;;;;4984737;28;20563;-68
2023/09/28 16:16:51;;;;;;;1.80;1.50;;;23.50;99.90;;;;;;4991064;28;20471;-69
2023/09/28 16:19:19;;;;;;;1.87;1.53;;;23.30;99.90;;;;;;4983162;28;20477;-68
2023/09/28 16:21:47;;;;;;;2.67;2.10;;;23.20;99.90;;;;;;4984412;28;20478;-68